Time;durP1;ratioP1;P1;durP2;ratioP2;P2;SDS_P1;SDS_P2;PMS_P1;PMS_P2;Temp;Humidity;BMP_temperature;BMP_pressure;BME280_temperature;BME280_humidity;BME280_pressure;Samples;Min_cycle;Max_cycle;Signal;HPM_P1;HPM_P2
2021/09/02 00:00:50;;;;;;;;;20.60;18.60;;;;;19.67;57.03;99331.88;6147255;28;97676;-63
2021/09/02 00:03:55;;;;;;;;;21.00;19.80;;;;;19.68;56.62;99342.56;6174377;28;97137;-63
2021/09/02 00:07:00;;;;;;;;;22.20;20.60;;;;;19.71;56.83;99338.44;6144140;28;97903;-63
2021/09/02 00:10:04;;;;;;;;;23.40;21.00;;;;;19.68;56.58;99336.28;6166113;28;97245;-63
2021/09/02 00:13:07;;;;;;;;;26.00;21.00;;;;;19.68;56.71;99345.31;6173460;28;96593;-63
2021/09/02 00:16:10;;;;;;;;;20.20;17.80;;;;;19.73;56.63;99341.75;6168002;28;98013;-63
2021/09/02 00:19:16;;;;;;;;;19.00;17.25;;;;;19.71;56.55;99342.03;6154788;28;96732;-62
2021/09/02 00:22:19;;;;;;;;;19.00;17.80;;;;;19.69;56.63;99341.47;6162665;28;97421;-62
2021/09/02 00:25:22;;;;;;;;;20.00;18.50;;;;;19.72;57.02;99340.94;6166085;28;97172;-63
2021/09/02 00:28:26;;;;;;;;;21.00;20.00;;;;;19.71;56.80;99339.28;6173056;28;97091;-63
2021/09/02 00:31:36;;;;;;;;;17.20;16.20;;;;;19.70;56.93;99351.31;6141750;28;97346;-63
2021/09/02 00:34:40;;;;;;;;;18.00;17.60;;;;;19.69;56.93;99346.94;6153978;28;97307;-63
2021/09/02 00:37:44;;;;;;;;;21.80;17.20;;;;;19.75;56.62;99347.75;6149297;28;97207;-63
2021/09/02 00:40:47;;;;;;;;;20.00;18.50;;;;;19.79;56.64;99352.41;6164803;28;96922;-62
2021/09/02 00:43:51;;;;;;;;;20.00;19.00;;;;;19.76;56.72;99347.50;6153333;28;96728;-63
2021/09/02 00:46:54;;;;;;;;;17.60;17.00;;;;;19.77;56.69;99348.31;6166014;28;96755;-63
2021/09/02 00:49:59;;;;;;;;;20.40;18.00;;;;;19.76;56.33;99347.50;6164442;28;96700;-62
2021/09/02 00:53:03;;;;;;;;;17.00;15.40;;;;;19.72;56.44;99346.41;6165121;28;96677;-63
2021/09/02 00:56:06;;;;;;;;;17.50;17.00;;;;;19.80;56.56;99345.88;6165932;28;97504;-63
2021/09/02 00:59:10;;;;;;;;;21.60;19.60;;;;;19.81;56.70;99347.50;6160926;28;96767;-63
2021/09/02 01:02:13;;;;;;;;;20.80;17.80;;;;;19.53;56.52;99325.28;6162893;28;97491;-61
2021/09/02 01:05:19;;;;;;;;;23.20;18.80;;;;;19.70;56.94;99353.22;6175134;28;97713;-61
2021/09/02 01:08:23;;;;;;;;;24.80;23.00;;;;;19.67;56.65;99351.03;6168124;28;97450;-62
2021/09/02 01:11:26;;;;;;;;;22.00;20.60;;;;;19.63;56.98;99350.75;6170193;28;97441;-63
2021/09/02 01:14:29;;;;;;;;;23.00;21.20;;;;;19.68;56.90;99352.69;6170883;28;96773;-63
2021/09/02 01:17:33;;;;;;;;;20.80;19.40;;;;;19.70;56.75;99361.44;6151767;28;97405;-63
2021/09/02 01:20:38;;;;;;;;;22.20;19.60;;;;;19.67;56.57;99353.78;6150835;28;99613;-63
2021/09/02 01:23:43;;;;;;;;;19.40;19.40;;;;;19.69;56.95;99354.34;6175576;28;96701;-62
2021/09/02 01:26:46;;;;;;;;;22.75;21.50;;;;;19.68;56.72;99355.41;6170184;28;96415;-62
2021/09/02 01:29:54;;;;;;;;;22.20;18.60;;;;;19.74;56.38;99351.63;6171705;28;97134;-62
2021/09/02 01:32:58;;;;;;;;;18.40;16.80;;;;;19.73;56.18;99345.31;6153036;28;98659;-63
2021/09/02 01:36:01;;;;;;;;;20.80;18.60;;;;;19.68;56.56;99348.03;6175899;28;97477;-63
2021/09/02 01:39:06;;;;;;;;;21.60;19.40;;;;;19.64;56.56;99343.38;6171607;28;97078;-63
2021/09/02 01:42:13;;;;;;;;;22.60;20.60;;;;;19.63;56.64;99348.03;6165310;28;97476;-63
2021/09/02 01:45:16;;;;;;;;;22.75;21.00;;;;;19.51;57.21;99341.97;6163090;28;97416;-63
2021/09/02 01:48:20;;;;;;;;;18.50;17.50;;;;;19.46;57.00;99342.75;6165776;28;96988;-61
2021/09/02 01:51:23;;;;;;;;;21.60;20.60;;;;;19.46;56.90;99350.97;6171112;28;97387;-63
2021/09/02 01:54:27;;;;;;;;;28.00;24.25;;;;;19.53;57.27;99350.72;6174064;28;96930;-63
2021/09/02 01:57:31;;;;;;;;;18.75;17.75;;;;;19.49;57.07;99348.81;6169115;28;97927;-63
2021/09/02 02:00:35;;;;;;;;;23.75;22.00;;;;;19.37;57.38;99336.16;6164662;28;96478;-61
2021/09/02 02:03:38;;;;;;;;;22.25;21.25;;;;;19.32;57.29;99335.28;6170006;28;97401;-63
2021/09/02 02:06:42;;;;;;;;;21.20;19.20;;;;;19.29;57.60;99333.09;6172503;28;96702;-63
2021/09/02 02:09:46;;;;;;;;;19.80;18.40;;;;;19.30;57.38;99335.56;6168974;28;97240;-61
2021/09/02 02:12:50;;;;;;;;;21.00;19.25;;;;;19.37;57.42;99335.31;6167486;28;97074;-63
2021/09/02 02:15:53;;;;;;;;;22.75;20.75;;;;;19.35;57.57;99330.09;6170440;28;97000;-62
2021/09/02 02:18:56;;;;;;;;;20.00;18.00;;;;;19.38;57.55;99334.22;6177928;28;96911;-63
2021/09/02 02:22:02;;;;;;;;;24.00;21.00;;;;;19.35;57.36;99332.03;6170452;28;97045;-62
2021/09/02 02:25:08;;;;;;;;;22.00;19.00;;;;;19.31;57.50;99330.91;6146222;28;99831;-63
2021/09/02 02:28:11;;;;;;;;;21.00;18.60;;;;;19.21;58.08;99330.88;6163718;28;97052;-63
2021/09/02 02:31:15;;;;;;;;;20.00;19.00;;;;;19.18;57.68;99326.78;6168916;28;97161;-63
2021/09/02 02:34:18;;;;;;;;;23.75;19.00;;;;;19.23;57.55;99332.25;6149462;28;97782;-61
2021/09/02 02:37:22;;;;;;;;;23.40;19.80;;;;;19.21;57.40;99339.06;6172431;28;97751;-63
2021/09/02 02:40:26;;;;;;;;;21.00;20.00;;;;;19.19;57.43;99335.81;6152973;28;97488;-63
2021/09/02 02:43:29;;;;;;;;;19.75;18.00;;;;;19.11;57.26;99328.91;6137556;28;99760;-63
2021/09/02 02:46:33;;;;;;;;;19.20;18.60;;;;;19.17;57.65;99347.00;6158300;28;97474;-62
2021/09/02 02:49:37;;;;;;;;;23.00;21.00;;;;;19.14;57.28;99344.81;6164144;28;97944;-62
2021/09/02 02:52:40;;;;;;;;;22.00;21.00;;;;;19.13;57.58;99345.06;6149250;28;96729;-62
2021/09/02 02:55:44;;;;;;;;;20.00;19.00;;;;;19.16;57.26;99339.88;6165562;28;98469;-62
2021/09/02 02:58:48;;;;;;;;;21.50;19.50;;;;;19.10;57.61;99334.66;6173642;28;97463;-63
2021/09/02 03:01:52;;;;;;;;;21.40;19.00;;;;;19.02;57.51;99333.25;6171358;28;96474;-63
2021/09/02 03:04:56;;;;;;;;;23.00;20.00;;;;;18.95;58.03;99319.03;6163331;28;96638;-62
2021/09/02 03:07:59;;;;;;;;;22.25;20.00;;;;;18.97;57.95;99333.22;6145879;28;96861;-63
2021/09/02 03:11:04;;;;;;;;;24.50;21.50;;;;;18.97;57.78;99338.69;6165225;28;96700;-63
2021/09/02 03:14:07;;;;;;;;;22.00;20.00;;;;;18.99;57.80;99342.81;6159936;28;97493;-63
2021/09/02 03:17:12;;;;;;;;;21.00;19.00;;;;;18.97;57.64;99346.88;6163669;28;96691;-63
2021/09/02 03:20:16;;;;;;;;;19.00;19.00;;;;;18.97;57.48;99347.72;6168014;28;97296;-62
2021/09/02 03:23:19;;;;;;;;;20.00;19.00;;;;;18.98;57.50;99346.63;6146853;28;97379;-63
2021/09/02 03:26:24;;;;;;;;;19.50;18.00;;;;;18.95;57.69;99352.63;6167783;28;97180;-62
2021/09/02 03:29:27;;;;;;;;;23.00;21.00;;;;;18.98;57.40;99357.56;6159940;28;96642;-63
2021/09/02 03:32:31;;;;;;;;;22.40;20.00;;;;;18.93;57.51;99356.69;6160882;28;97546;-63
2021/09/02 03:35:34;;;;;;;;;22.80;21.00;;;;;18.94;57.45;99358.34;6162612;28;96745;-62
2021/09/02 03:38:37;;;;;;;;;24.25;21.25;;;;;18.92;57.48;99360.50;6172510;28;96937;-62
2021/09/02 03:41:42;;;;;;;;;23.40;21.40;;;;;18.89;57.84;99359.16;6162514;28;97517;-62
2021/09/02 03:44:45;;;;;;;;;20.20;19.00;;;;;18.93;57.64;99360.25;6161298;28;97276;-63
2021/09/02 03:47:50;;;;;;;;;23.00;21.00;;;;;19.02;57.66;99371.50;6143568;28;99313;-62
2021/09/02 03:50:53;;;;;;;;;20.00;17.50;;;;;19.07;57.62;99370.72;6170552;28;97489;-63
2021/09/02 03:53:57;;;;;;;;;25.00;22.00;;;;;19.08;57.30;99377.81;6168601;28;97847;-63
2021/09/02 03:57:02;;;;;;;;;20.40;18.00;;;;;19.12;57.40;99371.56;6164437;28;97438;-63
2021/09/02 04:00:08;;;;;;;;;23.20;20.00;;;;;18.97;57.47;99350.44;6167570;28;97762;-62
2021/09/02 04:03:11;;;;;;;;;22.00;21.00;;;;;19.09;57.51;99374.00;6142516;28;96856;-62
2021/09/02 04:06:15;;;;;;;;;19.60;19.00;;;;;19.17;57.21;99374.31;6146014;28;97202;-63
2021/09/02 04:09:18;;;;;;;;;23.50;21.25;;;;;19.14;57.11;99377.59;6145867;28;97172;-63
2021/09/02 04:12:23;;;;;;;;;23.00;20.75;;;;;19.17;57.03;99384.44;6139781;28;97452;-63
2021/09/02 04:15:26;;;;;;;;;22.20;21.20;;;;;19.10;56.92;99371.03;6157634;28;97440;-62
2021/09/02 04:18:30;;;;;;;;;22.20;18.20;;;;;19.22;56.96;99389.94;6162947;28;96614;-61
2021/09/02 04:21:33;;;;;;;;;22.00;20.60;;;;;19.23;57.09;99386.09;6162369;28;97586;-69
2021/09/02 04:24:36;;;;;;;;;23.00;21.00;;;;;19.28;56.88;99389.69;6166407;28;97130;-65
2021/09/02 04:27:41;;;;;;;;;22.40;21.00;;;;;19.30;56.91;99378.50;6127115;28;97672;-64
2021/09/02 04:30:44;;;;;;;;;25.40;22.40;;;;;19.29;56.67;99380.41;6140201;28;96617;-65
2021/09/02 04:33:47;;;;;;;;;21.60;20.00;;;;;19.31;57.01;99382.84;6143888;28;99695;-64
2021/09/02 04:36:51;;;;;;;;;25.00;22.50;;;;;18.80;57.18;99311.56;6144985;28;96487;-63
2021/09/02 04:39:54;;;;;;;;;23.50;21.00;;;;;19.31;56.88;99394.63;6161625;28;98231;-64
2021/09/02 04:42:59;;;;;;;;;24.60;22.60;;;;;19.38;57.06;99397.13;6147636;28;99742;-64
2021/09/02 04:46:02;;;;;;;;;22.40;20.40;;;;;19.26;57.04;99363.69;6147723;28;98625;-63
2021/09/02 04:49:06;;;;;;;;;23.80;20.80;;;;;19.51;57.06;99401.28;6167144;28;97885;-64
2021/09/02 04:52:09;;;;;;;;;21.00;21.00;;;;;19.45;57.04;99400.44;6165800;28;97091;-64
2021/09/02 04:55:13;;;;;;;;;27.00;24.00;;;;;19.53;56.49;99405.44;6150114;28;97479;-64
2021/09/02 04:58:18;;;;;;;;;24.00;22.00;;;;;19.56;56.59;99410.34;6149007;28;96550;-65
2021/09/02 05:01:21;;;;;;;;;23.40;20.60;;;;;19.63;56.54;99408.19;6165487;28;97707;-64
2021/09/02 05:04:25;;;;;;;;;23.00;20.00;;;;;19.68;56.63;99405.47;6166967;28;96997;-63
2021/09/02 05:07:28;;;;;;;;;24.00;20.00;;;;;19.70;56.35;99416.13;6167112;28;97532;-64
2021/09/02 05:10:31;;;;;;;;;23.00;20.00;;;;;19.55;55.73;99392.28;6148250;28;97550;-62
2021/09/02 05:13:36;;;;;;;;;22.00;18.20;;;;;19.85;56.08;99413.47;6169273;28;96737;-65
2021/09/02 05:16:39;;;;;;;;;20.00;18.00;;;;;19.93;55.97;99418.44;6164334;28;97400;-63
2021/09/02 05:19:43;;;;;;;;;24.40;22.20;;;;;20.06;55.55;99430.75;6130075;28;98404;-64
2021/09/02 05:22:47;;;;;;;;;20.00;18.75;;;;;20.22;55.00;99425.06;6167029;28;96648;-66
2021/09/02 05:25:50;;;;;;;;;17.00;16.40;;;;;20.26;54.48;99430.81;6166271;28;96418;-65
2021/09/02 05:28:55;;;;;;;;;19.50;17.50;;;;;20.30;54.23;99432.75;6149137;28;100508;-65
2021/09/02 05:31:58;;;;;;;;;17.40;15.00;;;;;20.42;54.08;99434.41;6149080;28;97073;-64
2021/09/02 05:35:01;;;;;;;;;15.60;13.00;;;;;20.54;53.57;99438.53;6166646;28;97522;-64
2021/09/02 05:38:05;;;;;;;;;16.00;14.40;;;;;20.68;53.80;99434.13;6166535;28;97038;-65
2021/09/02 05:41:08;;;;;;;;;15.00;14.00;;;;;20.86;52.87;99443.75;6149786;28;98698;-65
2021/09/02 05:44:13;;;;;;;;;14.50;13.75;;;;;21.02;52.46;99436.28;6167866;28;97529;-64
2021/09/02 05:47:16;;;;;;;;;16.25;13.75;;;;;21.18;51.35;99440.69;6167395;28;96532;-64
2021/09/02 05:50:20;;;;;;;;;13.00;12.50;;;;;21.40;51.36;99438.47;6166824;28;97442;-64
2021/09/02 05:53:23;;;;;;;;;14.60;13.00;;;;;21.46;50.35;99442.81;6149648;28;98557;-63
2021/09/02 05:56:27;;;;;;;;;15.40;14.00;;;;;21.64;50.59;99443.31;6149231;28;96644;-64
2021/09/02 05:59:32;;;;;;;;;12.00;11.20;;;;;21.80;50.15;99437.47;6147990;28;99597;-64
2021/09/02 06:02:36;;;;;;;;;15.00;14.00;;;;;21.88;49.46;99433.31;6164953;28;97581;-63
2021/09/02 06:05:39;;;;;;;;;15.00;14.00;;;;;21.95;49.67;99448.41;6149186;28;96441;-65
2021/09/02 06:08:43;;;;;;;;;13.00;12.40;;;;;22.11;48.61;99446.41;6165112;28;97470;-64
2021/09/02 06:11:46;;;;;;;;;13.00;12.00;;;;;22.22;48.55;99450.75;6165536;28;96621;-65
2021/09/02 06:14:51;;;;;;;;;13.00;13.00;;;;;22.32;48.74;99455.34;6130167;28;97553;-65
2021/09/02 06:17:54;;;;;;;;;12.00;11.00;;;;;22.24;47.88;99439.44;6123041;28;97098;-65
2021/09/02 06:20:57;;;;;;;;;14.60;13.00;;;;;22.30;48.56;99447.38;6139346;28;97484;-66
2021/09/02 06:24:01;;;;;;;;;10.00;10.00;;;;;22.20;48.04;99424.66;6142977;28;97490;-64
2021/09/02 06:27:04;;;;;;;;;12.80;11.00;;;;;22.26;47.98;99418.84;6125167;28;98686;-62
2021/09/02 06:30:09;;;;;;;;;14.75;13.00;;;;;22.40;47.52;99427.25;6124213;28;96931;-64
2021/09/02 06:33:13;;;;;;;;;14.00;13.00;;;;;22.58;47.56;99437.56;6142742;28;97416;-62
2021/09/02 06:36:18;;;;;;;;;10.50;10.00;;;;;22.67;46.37;99460.59;6124000;28;97443;-64
2021/09/02 06:39:22;;;;;;;;;13.60;12.60;;;;;22.68;46.79;99458.63;6123817;28;97363;-64
2021/09/02 06:42:25;;;;;;;;;13.60;12.00;;;;;22.65;47.13;99470.22;6142358;28;97476;-62
2021/09/02 06:45:30;;;;;;;;;15.00;12.80;;;;;22.63;47.14;99466.91;6141328;28;96420;-66
2021/09/02 06:48:33;;;;;;;;;14.00;12.60;;;;;22.40;46.91;99495.94;6141323;28;96518;-62
2021/09/02 06:51:39;;;;;;;;;14.25;14.00;;;;;22.57;46.95;99476.34;6142605;28;96565;-64
2021/09/02 06:54:42;;;;;;;;;12.00;10.80;;;;;22.61;46.91;99480.97;6106890;28;98090;-63
2021/09/02 06:57:46;;;;;;;;;15.80;14.40;;;;;22.56;47.24;99483.75;6140456;28;97527;-62
2021/09/02 07:00:53;;;;;;;;;14.80;12.00;;;;;22.54;47.29;99485.94;6123402;28;97030;-64
2021/09/02 07:03:56;;;;;;;;;13.00;11.00;;;;;22.61;47.89;99486.47;6121936;28;96659;-62
2021/09/02 07:07:00;;;;;;;;;16.25;13.25;;;;;22.71;47.57;99483.69;6140615;28;97075;-66
2021/09/02 07:10:04;;;;;;;;;13.00;12.00;;;;;22.86;46.92;99488.22;6141258;28;97886;-65
2021/09/02 07:13:07;;;;;;;;;12.00;11.00;;;;;22.85;46.31;99492.91;6144883;28;96927;-65
2021/09/02 07:16:12;;;;;;;;;14.00;12.00;;;;;22.94;46.72;99492.28;6164638;28;97475;-65
2021/09/02 07:19:15;;;;;;;;;12.80;10.00;;;;;22.98;46.23;99502.41;6166102;28;96624;-63
2021/09/02 07:22:18;;;;;;;;;11.00;11.00;;;;;23.07;46.34;99505.34;6146197;28;97098;-65
2021/09/02 07:25:22;;;;;;;;;13.00;12.25;;;;;23.35;45.90;99509.25;6163923;28;97379;-65
2021/09/02 07:28:25;;;;;;;;;12.60;11.00;;;;;23.31;45.60;99485.03;6139208;28;97880;-64
2021/09/02 07:31:40;;;;;;;;;13.00;11.25;;;;;23.65;45.19;99515.25;6140484;28;96520;-62
2021/09/02 07:34:43;;;;;;;;;13.50;12.00;;;;;23.72;44.78;99509.41;6138990;28;96790;-65
2021/09/02 07:37:47;;;;;;;;;12.75;12.00;;;;;24.03;43.73;99518.97;6141363;28;96787;-65
2021/09/02 07:40:50;;;;;;;;;10.00;10.00;;;;;24.31;42.48;99516.44;6140503;28;97609;-64
2021/09/02 07:44:03;;;;;;;;;12.00;11.00;;;;;24.48;42.51;99531.31;6140252;28;96590;-65
2021/09/02 07:47:09;;;;;;;;;11.00;10.00;;;;;24.22;41.95;99499.75;6123017;28;96574;-63
2021/09/02 07:50:13;;;;;;;;;10.00;10.00;;;;;24.39;41.02;99529.53;6139941;28;97911;-64
2021/09/02 07:53:16;;;;;;;;;14.00;13.00;;;;;24.54;42.34;99526.56;6139608;28;96658;-65
2021/09/02 07:56:20;;;;;;;;;12.80;12.00;;;;;22.86;42.46;99276.53;6149069;28;97314;-64
2021/09/02 07:59:23;;;;;;;;;16.25;12.50;;;;;24.49;42.83;99545.94;6162948;28;96762;-64
2021/09/02 08:02:28;;;;;;;;;13.50;12.00;;;;;24.41;42.67;99527.31;6147253;28;97726;-65
2021/09/02 08:05:32;;;;;;;;;13.00;12.00;;;;;24.45;41.71;99536.63;6162261;28;96706;-65
2021/09/02 08:08:35;;;;;;;;;11.00;11.00;;;;;24.78;40.98;99541.09;6145604;28;97909;-64
2021/09/02 08:11:39;;;;;;;;;11.40;11.00;;;;;25.00;41.86;99505.47;6164809;28;97193;-64
2021/09/02 08:14:42;;;;;;;;;13.00;12.25;;;;;25.63;40.13;99496.63;6147441;28;97253;-64
2021/09/02 08:17:48;;;;;;;;;14.60;12.40;;;;;26.09;39.32;99537.97;6146305;28;97540;-65
2021/09/02 08:20:52;;;;;;;;;12.00;9.60;;;;;26.00;39.37;99539.81;6145546;28;97822;-65
2021/09/02 08:23:58;;;;;;;;;11.20;11.00;;;;;25.94;39.28;99549.34;6147303;28;97526;-65
2021/09/02 08:27:01;;;;;;;;;14.00;12.00;;;;;25.84;39.18;99544.84;6164319;28;96574;-64
2021/09/02 08:30:07;;;;;;;;;9.00;8.00;;;;;25.86;38.20;99548.09;6162430;28;96499;-65
2021/09/02 08:33:11;;;;;;;;;8.00;8.00;;;;;25.90;37.46;99558.56;6165246;28;97427;-65
2021/09/02 08:36:15;;;;;;;;;9.50;8.50;;;;;26.01;37.37;99554.44;6162638;28;97482;-66
2021/09/02 08:39:19;;;;;;;;;8.20;8.00;;;;;26.20;36.88;99555.97;6163932;28;97415;-65
2021/09/02 08:42:22;;;;;;;;;8.00;7.00;;;;;26.30;35.77;99541.97;6145288;28;96814;-64
2021/09/02 08:45:27;;;;;;;;;10.00;10.00;;;;;26.14;36.37;99490.91;6146028;28;98194;-64
2021/09/02 08:48:33;;;;;;;;;11.00;10.50;;;;;26.47;35.88;99543.28;6163622;28;96712;-64
2021/09/02 08:51:36;;;;;;;;;11.00;9.00;;;;;26.74;35.53;99535.72;6163860;28;97235;-64
2021/09/02 08:54:39;;;;;;;;;8.00;6.60;;;;;26.98;34.53;99540.16;6164762;28;96717;-64
2021/09/02 08:57:44;;;;;;;;;8.20;8.00;;;;;27.46;33.95;99530.09;6147129;28;96562;-65
2021/09/02 09:00:47;;;;;;;;;10.00;9.60;;;;;27.68;33.90;99545.88;6163717;28;96604;-65
2021/09/02 09:03:52;;;;;;;;;9.00;8.00;;;;;27.68;33.32;99533.97;6129928;28;97208;-65
2021/09/02 09:06:56;;;;;;;;;9.40;9.00;;;;;27.56;33.10;99538.13;6165032;28;97080;-65
2021/09/02 09:10:00;;;;;;;;;10.00;9.00;;;;;27.71;33.50;99544.44;6145399;28;97738;-66
2021/09/02 09:13:05;;;;;;;;;8.00;8.00;;;;;27.75;33.58;99543.47;6164427;28;97020;-64
2021/09/02 09:16:08;;;;;;;;;9.00;7.00;;;;;27.95;33.12;99542.09;6146213;28;97020;-65
2021/09/02 09:19:37;;;;;;;;;8.00;7.40;;;;;28.19;32.12;99538.94;6146450;28;97404;-65
2021/09/02 09:22:40;;;;;;;;;7.80;7.00;;;;;28.33;32.88;99543.19;6164215;28;96513;-66
2021/09/02 09:25:43;;;;;;;;;8.50;8.50;;;;;28.51;32.32;99548.78;6131881;28;98552;-65
2021/09/02 09:28:47;;;;;;;;;10.00;10.00;;;;;28.51;32.09;99530.16;6166647;28;97056;-64
2021/09/02 09:31:50;;;;;;;;;9.00;8.00;;;;;28.83;32.08;99538.03;6149955;28;97144;-65
2021/09/02 09:34:55;;;;;;;;;8.00;7.00;;;;;28.96;31.36;99538.22;6149691;28;96515;-65
2021/09/02 09:38:07;;;;;;;;;6.00;6.00;;;;;29.06;30.72;99524.81;6167978;28;97140;-64
2021/09/02 09:41:10;;;;;;;;;9.00;7.60;;;;;29.22;30.64;99528.69;6166475;28;96772;-66
2021/09/02 09:44:22;;;;;;;;;10.00;9.00;;;;;29.17;30.01;99528.09;6166672;28;97589;-64
2021/09/02 09:47:27;;;;;;;;;11.00;8.80;;;;;28.87;30.60;99534.63;6165878;28;97765;-65
2021/09/02 09:50:32;;;;;;;;;8.00;8.00;;;;;28.23;30.98;99520.50;6148418;28;96760;-64
2021/09/02 09:53:36;;;;;;;;;8.40;7.00;;;;;27.99;32.55;99449.66;6133839;28;98155;-62
2021/09/02 09:56:39;;;;;;;;;9.00;8.00;;;;;28.25;30.71;99460.78;6150609;28;100342;-64
2021/09/02 09:59:44;;;;;;;;;8.50;8.00;;;;;28.71;30.63;99499.03;6168694;28;96758;-64
2021/09/02 10:02:49;;;;;;;;;8.00;8.00;;;;;29.05;28.82;99537.06;6168252;28;96630;-66
2021/09/02 10:05:54;;;;;;;;;10.50;10.00;;;;;29.74;29.77;99544.47;6166076;28;97443;-65
2021/09/02 10:08:58;;;;;;;;;12.00;11.00;;;;;29.83;29.36;99520.22;6166157;28;97489;-64
2021/09/02 10:12:05;;;;;;;;;11.00;10.00;;;;;29.63;29.96;99538.44;6166978;28;97223;-65
2021/09/02 10:15:11;;;;;;;;;13.00;12.00;;;;;29.29;30.20;99533.75;6164631;28;98129;-65
2021/09/02 10:18:14;;;;;;;;;9.00;8.00;;;;;28.91;30.51;99522.56;6166869;28;97430;-65
2021/09/02 10:21:21;;;;;;;;;9.00;9.00;;;;;28.88;30.92;99536.28;6165820;28;97129;-65
2021/09/02 10:24:35;;;;;;;;;10.40;10.00;;;;;28.54;31.18;99528.72;6147881;28;97254;-66
2021/09/02 10:27:38;;;;;;;;;10.00;9.40;;;;;28.16;30.94;99536.78;6149133;28;96948;-66
2021/09/02 10:30:45;;;;;;;;;8.00;8.00;;;;;28.00;30.78;99536.41;6165473;28;97434;-64
2021/09/02 10:33:50;;;;;;;;;8.00;7.00;;;;;27.82;31.80;99535.50;6146579;28;97114;-66
2021/09/02 10:36:54;;;;;;;;;8.00;7.00;;;;;27.60;31.53;99531.97;6148259;28;97417;-64
2021/09/02 10:39:57;;;;;;;;;6.60;6.00;;;;;27.24;31.97;99521.81;6166020;28;97508;-64
2021/09/02 10:43:01;;;;;;;;;9.00;8.00;;;;;27.37;32.18;99525.63;6148367;28;97854;-64
2021/09/02 10:46:04;;;;;;;;;7.00;6.50;;;;;27.55;32.16;99513.53;6149684;28;96352;-64
2021/09/02 10:49:16;;;;;;;;;8.00;7.00;;;;;28.16;30.73;99545.91;6166044;28;97043;-66
2021/09/02 10:52:28;;;;;;;;;6.00;6.00;;;;;28.20;30.43;99543.34;6166296;28;97574;-64
2021/09/02 10:55:33;;;;;;;;;6.75;5.75;;;;;28.09;30.47;99545.56;6147075;28;96731;-65
2021/09/02 10:58:47;;;;;;;;;5.80;5.80;;;;;27.89;30.91;99541.41;6165963;28;96739;-64
2021/09/02 11:01:50;;;;;;;;;6.00;5.60;;;;;27.71;30.96;99538.88;6166408;28;97469;-65
2021/09/02 11:04:59;;;;;;;;;6.60;6.00;;;;;27.53;30.71;99540.72;6131560;28;98532;-66
2021/09/02 11:08:04;;;;;;;;;6.00;6.00;;;;;27.44;31.65;99539.84;6166543;28;97063;-64
2021/09/02 11:11:12;;;;;;;;;7.40;7.00;;;;;27.06;31.60;99536.66;6147490;28;97257;-64
2021/09/02 11:14:15;;;;;;;;;6.40;6.00;;;;;26.77;32.12;99550.06;6164169;28;98221;-64
2021/09/02 11:17:18;;;;;;;;;6.60;6.00;;;;;26.83;32.67;99543.28;6147224;28;97393;-65
2021/09/02 11:20:28;;;;;;;;;7.00;6.00;;;;;26.62;32.65;99549.28;6144523;28;97689;-64
2021/09/02 11:23:32;;;;;;;;;6.00;6.00;;;;;26.60;32.27;99543.25;6164958;28;97177;-64
2021/09/02 11:26:38;;;;;;;;;5.60;5.00;;;;;26.49;32.45;99538.25;6163779;28;96517;-64
2021/09/02 11:29:42;;;;;;;;;6.33;5.33;;;;;26.42;32.11;99513.81;6153468;28;97252;-64
2021/09/02 11:33:01;;;;;;;;;5.00;5.00;;;;;26.44;32.99;99554.97;6149371;28;97213;-65
2021/09/02 11:36:05;;;;;;;;;5.80;5.00;;;;;26.37;33.16;99546.25;6164865;28;97804;-64
2021/09/02 11:39:10;;;;;;;;;7.00;6.60;;;;;26.23;33.93;99551.81;6164390;28;96536;-65
2021/09/02 11:42:13;;;;;;;;;7.25;7.00;;;;;25.99;33.80;99554.75;6165266;28;97477;-65
2021/09/02 11:45:17;;;;;;;;;5.00;5.00;;;;;25.88;34.31;99553.31;6164389;28;96995;-65
2021/09/02 11:48:21;;;;;;;;;6.00;6.00;;;;;25.83;34.56;99553.41;6164626;28;97550;-64
2021/09/02 11:51:25;;;;;;;;;5.00;5.00;;;;;25.80;34.96;99554.84;6131339;28;99539;-65
2021/09/02 11:54:33;;;;;;;;;7.00;6.00;;;;;25.86;34.97;99552.78;6165055;28;98255;-66
2021/09/02 11:57:37;;;;;;;;;5.00;4.00;;;;;25.68;34.67;99532.44;6164559;28;96977;-64
2021/09/02 12:00:40;;;;;;;;;7.00;6.00;;;;;25.71;35.25;99551.16;6149029;28;96699;-64
2021/09/02 12:03:49;;;;;;;;;7.40;7.00;;;;;25.58;34.88;99548.38;6165531;28;97427;-65
2021/09/02 12:06:55;;;;;;;;;6.00;6.00;;;;;24.87;35.33;99445.56;6147865;28;97927;-64
2021/09/02 12:10:00;;;;;;;;;7.00;6.00;;;;;25.86;35.44;99539.81;6129999;28;97853;-66
2021/09/02 12:13:22;;;;;;;;;7.00;6.60;;;;;26.64;34.67;99535.94;6164714;28;97478;-65
2021/09/02 12:16:32;;;;;;;;;7.60;7.00;;;;;27.28;33.45;99535.81;6163971;28;97522;-65
2021/09/02 12:19:52;;;;;;;;;7.00;7.00;;;;;27.35;32.86;99516.81;6164313;28;97471;-65
2021/09/02 12:23:00;;;;;;;;;7.00;7.00;;;;;27.85;31.96;99529.34;6159391;28;98242;-64
2021/09/02 12:26:05;;;;;;;;;7.00;6.00;;;;;28.38;30.36;99536.69;6166007;28;97058;-63
2021/09/02 12:29:12;;;;;;;;;6.75;6.75;;;;;28.77;30.31;99533.00;6163082;28;97009;-64
2021/09/02 12:32:16;;;;;;;;;9.00;7.00;;;;;28.77;29.73;99535.78;6132922;28;97710;-63
2021/09/02 12:35:20;;;;;;;;;7.00;7.00;;;;;29.04;30.26;99532.66;6162744;28;97127;-64
2021/09/02 12:38:36;;;;;;;;;7.50;6.00;;;;;28.98;29.92;99524.84;6164172;28;96535;-62
2021/09/02 12:41:43;;;;;;;;;5.80;4.80;;;;;29.14;30.61;99526.75;6156181;28;96471;-64
2021/09/02 12:44:46;;;;;;;;;7.00;6.00;;;;;28.95;30.40;99517.16;6164306;28;96411;-64
2021/09/02 12:48:00;;;;;;;;;7.25;7.00;;;;;28.78;31.06;99524.31;6160332;28;98031;-62
2021/09/02 12:51:03;;;;;;;;;7.00;6.25;;;;;28.75;31.37;99516.66;6133085;28;98681;-63
2021/09/02 12:54:06;;;;;;;;;7.40;6.60;;;;;28.71;30.92;99526.78;6159365;28;97659;-63
2021/09/02 12:57:12;;;;;;;;;7.00;7.00;;;;;28.38;30.29;99520.03;6164494;28;97113;-63
2021/09/02 13:00:17;;;;;;;;;8.00;7.00;;;;;28.20;30.21;99526.69;6167183;28;97011;-62
2021/09/02 13:03:20;;;;;;;;;5.50;5.00;;;;;27.90;30.92;99515.34;6150016;28;97601;-63
2021/09/02 13:06:24;;;;;;;;;5.40;5.00;;;;;27.54;30.89;99521.03;6169429;28;98038;-63
2021/09/02 13:09:27;;;;;;;;;6.00;5.20;;;;;26.85;32.04;99467.13;6165061;28;96807;-62
2021/09/02 13:12:32;;;;;;;;;5.75;5.00;;;;;26.80;32.69;99494.09;6171174;28;96723;-64
2021/09/02 13:15:36;;;;;;;;;5.00;4.60;;;;;26.82;32.34;99517.56;6124689;28;97646;-65
2021/09/02 13:18:39;;;;;;;;;7.00;6.00;;;;;26.62;32.45;99512.50;6142543;28;96836;-64
2021/09/02 13:21:43;;;;;;;;;6.00;5.00;;;;;26.83;32.82;99499.03;6141939;28;96921;-65
2021/09/02 13:24:46;;;;;;;;;5.00;5.00;;;;;27.17;31.75;99513.94;6142021;28;96712;-66
2021/09/02 13:27:52;;;;;;;;;5.80;5.20;;;;;27.21;32.27;99505.00;6142277;28;97382;-64
2021/09/02 13:30:55;;;;;;;;;6.00;6.00;;;;;27.19;32.21;99513.63;6142243;28;97461;-65
2021/09/02 13:33:58;;;;;;;;;5.50;5.00;;;;;27.21;32.61;99510.56;6124620;28;96974;-63
2021/09/02 13:37:02;;;;;;;;;8.00;7.00;;;;;27.05;32.64;99513.69;6136001;28;97442;-65
2021/09/02 13:40:07;;;;;;;;;6.00;6.00;;;;;26.84;33.35;99520.00;6145158;28;97424;-63
2021/09/02 13:43:12;;;;;;;;;5.00;5.00;;;;;26.61;32.71;99525.53;6142451;28;96719;-65
2021/09/02 13:46:15;;;;;;;;;5.60;5.00;;;;;26.33;32.70;99493.56;6146289;28;96725;-64
2021/09/02 13:49:19;;;;;;;;;5.20;5.00;;;;;26.32;33.54;99514.03;6141786;28;97639;-65
2021/09/02 13:52:22;;;;;;;;;7.00;6.00;;;;;26.12;33.59;99517.19;6141800;28;96652;-64
2021/09/02 13:55:26;;;;;;;;;7.00;6.00;;;;;25.96;34.34;99513.91;6140256;28;97181;-65
2021/09/02 13:58:30;;;;;;;;;5.40;5.40;;;;;25.85;35.10;99523.56;6142027;28;96522;-64
2021/09/02 14:01:35;;;;;;;;;6.00;6.00;;;;;25.76;35.16;99522.59;6122665;28;97850;-64
2021/09/02 14:04:39;;;;;;;;;5.00;4.60;;;;;25.69;35.64;99523.03;6143493;28;97517;-65
2021/09/02 14:07:42;;;;;;;;;6.50;5.50;;;;;25.53;34.94;99510.59;6142589;28;96661;-63
2021/09/02 14:10:45;;;;;;;;;6.00;5.00;;;;;25.22;34.44;99476.38;6142641;28;98597;-63
2021/09/02 14:13:50;;;;;;;;;6.40;5.80;;;;;25.54;34.92;99517.75;6140984;28;97468;-63